sensor_id;sensor_type;location;lat;lon;timestamp;P1;durP1;ratioP1;P2;durP2;ratioP2
19221;SDS011;9745;50.828;4.378;2023-06-14T00:00:19;8.83;;;5.03;;
19221;SDS011;9745;50.828;4.378;2023-06-14T00:02:45;6.43;;;5.43;;
19221;SDS011;9745;50.828;4.378;2023-06-14T00:05:11;7.07;;;5.30;;
19221;SDS011;9745;50.828;4.378;2023-06-14T00:07:38;7.90;;;5.30;;
19221;SDS011;9745;50.828;4.378;2023-06-14T00:10:08;14.93;;;5.50;;
19221;SDS011;9745;50.828;4.378;2023-06-14T00:12:34;7.73;;;4.90;;
19221;SDS011;9745;50.828;4.378;2023-06-14T00:15:01;7.27;;;5.03;;
19221;SDS011;9745;50.828;4.378;2023-06-14T00:17:27;11.13;;;5.70;;
19221;SDS011;9745;50.828;4.378;2023-06-14T00:19:57;8.03;;;5.77;;
19221;SDS011;9745;50.828;4.378;2023-06-14T00:22:23;6.90;;;5.03;;
19221;SDS011;9745;50.828;4.378;2023-06-14T00:24:49;9.93;;;4.70;;
19221;SDS011;9745;50.828;4.378;2023-06-14T00:27:15;8.53;;;5.17;;
19221;SDS011;9745;50.828;4.378;2023-06-14T00:29:41;9.53;;;4.73;;
19221;SDS011;9745;50.828;4.378;2023-06-14T00:32:07;6.63;;;5.20;;
19221;SDS011;9745;50.828;4.378;2023-06-14T00:34:33;7.10;;;4.77;;
19221;SDS011;9745;50.828;4.378;2023-06-14T00:37:00;8.80;;;5.40;;
19221;SDS011;9745;50.828;4.378;2023-06-14T00:39:25;10.17;;;4.80;;
19221;SDS011;9745;50.828;4.378;2023-06-14T00:41:51;6.00;;;4.93;;
19221;SDS011;9745;50.828;4.378;2023-06-14T00:44:18;17.27;;;5.43;;
19221;SDS011;9745;50.828;4.378;2023-06-14T00:46:47;7.07;;;5.33;;
19221;SDS011;9745;50.828;4.378;2023-06-14T00:49:15;8.30;;;4.87;;
19221;SDS011;9745;50.828;4.378;2023-06-14T00:51:43;9.27;;;5.53;;
19221;SDS011;9745;50.828;4.378;2023-06-14T00:54:09;8.53;;;5.10;;
19221;SDS011;9745;50.828;4.378;2023-06-14T00:56:35;7.47;;;5.60;;
19221;SDS011;9745;50.828;4.378;2023-06-14T00:59:02;11.23;;;5.80;;
19221;SDS011;9745;50.828;4.378;2023-06-14T01:01:28;8.27;;;5.73;;
19221;SDS011;9745;50.828;4.378;2023-06-14T01:03:57;8.57;;;5.67;;
19221;SDS011;9745;50.828;4.378;2023-06-14T01:06:28;8.83;;;5.67;;
19221;SDS011;9745;50.828;4.378;2023-06-14T01:11:32;8.67;;;6.17;;
19221;SDS011;9745;50.828;4.378;2023-06-14T01:14:01;8.47;;;5.27;;
19221;SDS011;9745;50.828;4.378;2023-06-14T01:16:28;12.77;;;5.97;;
19221;SDS011;9745;50.828;4.378;2023-06-14T01:18:54;8.53;;;5.57;;
19221;SDS011;9745;50.828;4.378;2023-06-14T01:21:23;6.73;;;5.00;;
19221;SDS011;9745;50.828;4.378;2023-06-14T01:23:49;8.00;;;5.30;;
19221;SDS011;9745;50.828;4.378;2023-06-14T01:26:20;8.80;;;5.30;;
19221;SDS011;9745;50.828;4.378;2023-06-14T01:28:46;10.67;;;5.37;;
19221;SDS011;9745;50.828;4.378;2023-06-14T01:31:15;8.37;;;5.87;;
19221;SDS011;9745;50.828;4.378;2023-06-14T01:33:42;9.37;;;5.60;;
19221;SDS011;9745;50.828;4.378;2023-06-14T01:36:08;8.00;;;5.63;;
19221;SDS011;9745;50.828;4.378;2023-06-14T01:38:34;8.13;;;6.30;;
19221;SDS011;9745;50.828;4.378;2023-06-14T01:41:02;9.57;;;5.33;;
19221;SDS011;9745;50.828;4.378;2023-06-14T01:43:29;9.60;;;5.20;;
19221;SDS011;9745;50.828;4.378;2023-06-14T01:45:56;7.40;;;5.33;;
19221;SDS011;9745;50.828;4.378;2023-06-14T01:48:23;7.57;;;5.47;;
19221;SDS011;9745;50.828;4.378;2023-06-14T01:50:49;11.10;;;6.13;;
19221;SDS011;9745;50.828;4.378;2023-06-14T01:53:15;6.27;;;5.67;;
19221;SDS011;9745;50.828;4.378;2023-06-14T01:55:42;11.23;;;5.63;;
19221;SDS011;9745;50.828;4.378;2023-06-14T01:58:08;7.90;;;5.80;;
19221;SDS011;9745;50.828;4.378;2023-06-14T02:00:34;10.27;;;5.60;;
19221;SDS011;9745;50.828;4.378;2023-06-14T02:03:00;8.13;;;6.03;;
19221;SDS011;9745;50.828;4.378;2023-06-14T02:05:28;10.43;;;6.17;;
19221;SDS011;9745;50.828;4.378;2023-06-14T02:07:55;12.23;;;6.70;;
19221;SDS011;9745;50.828;4.378;2023-06-14T02:10:21;10.47;;;6.40;;
19221;SDS011;9745;50.828;4.378;2023-06-14T02:12:47;14.87;;;6.83;;
19221;SDS011;9745;50.828;4.378;2023-06-14T02:15:13;10.50;;;5.73;;
19221;SDS011;9745;50.828;4.378;2023-06-14T02:17:42;12.60;;;6.20;;
19221;SDS011;9745;50.828;4.378;2023-06-14T02:20:08;8.27;;;6.20;;
19221;SDS011;9745;50.828;4.378;2023-06-14T02:22:34;8.43;;;6.17;;
19221;SDS011;9745;50.828;4.378;2023-06-14T02:25:00;10.17;;;6.10;;
19221;SDS011;9745;50.828;4.378;2023-06-14T02:27:26;11.37;;;7.37;;
19221;SDS011;9745;50.828;4.378;2023-06-14T02:29:52;11.00;;;6.37;;
19221;SDS011;9745;50.828;4.378;2023-06-14T02:32:18;11.30;;;6.60;;
19221;SDS011;9745;50.828;4.378;2023-06-14T02:34:44;13.77;;;6.10;;
19221;SDS011;9745;50.828;4.378;2023-06-14T02:37:14;8.93;;;5.87;;
19221;SDS011;9745;50.828;4.378;2023-06-14T02:39:40;11.30;;;6.40;;
19221;SDS011;9745;50.828;4.378;2023-06-14T02:42:06;8.40;;;6.77;;
19221;SDS011;9745;50.828;4.378;2023-06-14T02:44:32;13.43;;;6.63;;
19221;SDS011;9745;50.828;4.378;2023-06-14T02:46:58;11.13;;;7.13;;
19221;SDS011;9745;50.828;4.378;2023-06-14T02:49:25;14.30;;;6.57;;
19221;SDS011;9745;50.828;4.378;2023-06-14T02:51:51;9.63;;;7.43;;
19221;SDS011;9745;50.828;4.378;2023-06-14T02:54:17;10.50;;;6.53;;
19221;SDS011;9745;50.828;4.378;2023-06-14T02:56:43;8.53;;;6.47;;
19221;SDS011;9745;50.828;4.378;2023-06-14T02:59:09;9.50;;;7.30;;
19221;SDS011;9745;50.828;4.378;2023-06-14T03:01:35;11.00;;;6.43;;
19221;SDS011;9745;50.828;4.378;2023-06-14T03:04:04;11.93;;;7.23;;
19221;SDS011;9745;50.828;4.378;2023-06-14T03:06:30;9.73;;;6.57;;
19221;SDS011;9745;50.828;4.378;2023-06-14T03:08:59;9.20;;;7.17;;
19221;SDS011;9745;50.828;4.378;2023-06-14T03:11:26;9.73;;;7.30;;
19221;SDS011;9745;50.828;4.378;2023-06-14T03:13:53;13.43;;;7.23;;
19221;SDS011;9745;50.828;4.378;2023-06-14T03:16:20;13.53;;;7.87;;
19221;SDS011;9745;50.828;4.378;2023-06-14T03:18:48;13.77;;;7.10;;
19221;SDS011;9745;50.828;4.378;2023-06-14T03:21:15;13.60;;;7.77;;
19221;SDS011;9745;50.828;4.378;2023-06-14T03:23:41;13.00;;;7.33;;
19221;SDS011;9745;50.828;4.378;2023-06-14T03:26:07;10.63;;;7.30;;
19221;SDS011;9745;50.828;4.378;2023-06-14T03:28:33;13.50;;;8.30;;
19221;SDS011;9745;50.828;4.378;2023-06-14T03:30:59;14.03;;;7.33;;
19221;SDS011;9745;50.828;4.378;2023-06-14T03:33:26;13.73;;;7.33;;
19221;SDS011;9745;50.828;4.378;2023-06-14T03:35:52;9.73;;;6.90;;
19221;SDS011;9745;50.828;4.378;2023-06-14T03:38:18;9.87;;;7.37;;
19221;SDS011;9745;50.828;4.378;2023-06-14T03:40:44;11.67;;;7.30;;
19221;SDS011;9745;50.828;4.378;2023-06-14T03:43:10;10.80;;;6.87;;
19221;SDS011;9745;50.828;4.378;2023-06-14T03:45:36;9.03;;;7.00;;
19221;SDS011;9745;50.828;4.378;2023-06-14T03:48:02;12.10;;;7.57;;
19221;SDS011;9745;50.828;4.378;2023-06-14T03:50:31;9.70;;;7.37;;
19221;SDS011;9745;50.828;4.378;2023-06-14T03:52:57;9.53;;;7.37;;
19221;SDS011;9745;50.828;4.378;2023-06-14T03:55:23;11.70;;;7.70;;
19221;SDS011;9745;50.828;4.378;2023-06-14T03:57:52;11.83;;;8.60;;
19221;SDS011;9745;50.828;4.378;2023-06-14T04:00:18;9.60;;;7.20;;
19221;SDS011;9745;50.828;4.378;2023-06-14T04:02:44;9.30;;;7.00;;
19221;SDS011;9745;50.828;4.378;2023-06-14T04:05:10;12.33;;;7.57;;
19221;SDS011;9745;50.828;4.378;2023-06-14T04:07:37;11.70;;;7.57;;
19221;SDS011;9745;50.828;4.378;2023-06-14T04:10:07;7.87;;;6.73;;
19221;SDS011;9745;50.828;4.378;2023-06-14T04:12:33;13.50;;;7.40;;
19221;SDS011;9745;50.828;4.378;2023-06-14T04:14:59;11.30;;;7.77;;
19221;SDS011;9745;50.828;4.378;2023-06-14T04:17:26;12.20;;;6.87;;
19221;SDS011;9745;50.828;4.378;2023-06-14T04:19:52;10.10;;;7.17;;
19221;SDS011;9745;50.828;4.378;2023-06-14T04:22:18;12.30;;;7.30;;
19221;SDS011;9745;50.828;4.378;2023-06-14T04:24:44;9.40;;;7.63;;
19221;SDS011;9745;50.828;4.378;2023-06-14T04:27:10;8.83;;;7.00;;
19221;SDS011;9745;50.828;4.378;2023-06-14T04:29:36;12.03;;;7.33;;
19221;SDS011;9745;50.828;4.378;2023-06-14T04:32:02;13.83;;;7.30;;
19221;SDS011;9745;50.828;4.378;2023-06-14T04:34:31;13.90;;;8.57;;
19221;SDS011;9745;50.828;4.378;2023-06-14T04:36:59;9.83;;;6.83;;
19221;SDS011;9745;50.828;4.378;2023-06-14T04:39:26;11.57;;;7.73;;
19221;SDS011;9745;50.828;4.378;2023-06-14T04:41:52;10.60;;;7.10;;
19221;SDS011;9745;50.828;4.378;2023-06-14T04:44:22;16.57;;;7.37;;
19221;SDS011;9745;50.828;4.378;2023-06-14T04:46:55;11.10;;;7.20;;
19221;SDS011;9745;50.828;4.378;2023-06-14T04:49:21;14.30;;;6.80;;
19221;SDS011;9745;50.828;4.378;2023-06-14T04:51:48;12.47;;;7.80;;
19221;SDS011;9745;50.828;4.378;2023-06-14T04:54:22;9.50;;;6.83;;
19221;SDS011;9745;50.828;4.378;2023-06-14T04:56:49;10.57;;;7.17;;
19221;SDS011;9745;50.828;4.378;2023-06-14T04:59:15;10.90;;;7.17;;
19221;SDS011;9745;50.828;4.378;2023-06-14T05:01:42;11.60;;;7.30;;
19221;SDS011;9745;50.828;4.378;2023-06-14T05:04:18;9.97;;;7.10;;
19221;SDS011;9745;50.828;4.378;2023-06-14T05:06:44;14.67;;;7.40;;
19221;SDS011;9745;50.828;4.378;2023-06-14T05:09:13;11.83;;;7.37;;
19221;SDS011;9745;50.828;4.378;2023-06-14T05:11:40;13.47;;;7.43;;
19221;SDS011;9745;50.828;4.378;2023-06-14T05:14:08;11.50;;;7.10;;
19221;SDS011;9745;50.828;4.378;2023-06-14T05:16:35;11.60;;;6.90;;
19221;SDS011;9745;50.828;4.378;2023-06-14T05:19:01;10.47;;;7.63;;
19221;SDS011;9745;50.828;4.378;2023-06-14T05:21:27;11.87;;;7.23;;
19221;SDS011;9745;50.828;4.378;2023-06-14T05:23:53;12.63;;;7.77;;
19221;SDS011;9745;50.828;4.378;2023-06-14T05:26:20;12.70;;;6.97;;
19221;SDS011;9745;50.828;4.378;2023-06-14T05:28:48;14.63;;;7.37;;
19221;SDS011;9745;50.828;4.378;2023-06-14T05:31:15;11.97;;;8.07;;
19221;SDS011;9745;50.828;4.378;2023-06-14T05:33:41;12.60;;;7.47;;
19221;SDS011;9745;50.828;4.378;2023-06-14T05:36:07;15.13;;;8.00;;
19221;SDS011;9745;50.828;4.378;2023-06-14T05:38:33;9.43;;;7.60;;
19221;SDS011;9745;50.828;4.378;2023-06-14T05:40:59;10.10;;;7.30;;
19221;SDS011;9745;50.828;4.378;2023-06-14T05:43:25;10.70;;;7.40;;
19221;SDS011;9745;50.828;4.378;2023-06-14T05:45:51;16.83;;;7.97;;
19221;SDS011;9745;50.828;4.378;2023-06-14T05:48:17;10.83;;;6.80;;
19221;SDS011;9745;50.828;4.378;2023-06-14T05:50:43;11.17;;;6.67;;
19221;SDS011;9745;50.828;4.378;2023-06-14T05:53:09;11.77;;;7.47;;
19221;SDS011;9745;50.828;4.378;2023-06-14T05:55:35;13.97;;;7.53;;
19221;SDS011;9745;50.828;4.378;2023-06-14T05:58:01;8.67;;;7.00;;
19221;SDS011;9745;50.828;4.378;2023-06-14T06:00:27;11.83;;;6.87;;
19221;SDS011;9745;50.828;4.378;2023-06-14T06:02:54;12.23;;;7.40;;
19221;SDS011;9745;50.828;4.378;2023-06-14T06:05:27;9.60;;;6.90;;
19221;SDS011;9745;50.828;4.378;2023-06-14T06:07:54;14.07;;;7.17;;
19221;SDS011;9745;50.828;4.378;2023-06-14T06:10:20;12.20;;;6.70;;
19221;SDS011;9745;50.828;4.378;2023-06-14T06:12:46;10.90;;;6.23;;
19221;SDS011;9745;50.828;4.378;2023-06-14T06:15:13;8.73;;;5.73;;
19221;SDS011;9745;50.828;4.378;2023-06-14T06:17:39;8.00;;;6.27;;
19221;SDS011;9745;50.828;4.378;2023-06-14T06:20:06;11.43;;;6.20;;
19221;SDS011;9745;50.828;4.378;2023-06-14T06:22:33;10.40;;;6.50;;
19221;SDS011;9745;50.828;4.378;2023-06-14T06:24:59;11.73;;;6.37;;
19221;SDS011;9745;50.828;4.378;2023-06-14T06:27:25;9.63;;;6.33;;
19221;SDS011;9745;50.828;4.378;2023-06-14T06:29:52;11.93;;;6.23;;
19221;SDS011;9745;50.828;4.378;2023-06-14T06:32:18;9.57;;;6.70;;
19221;SDS011;9745;50.828;4.378;2023-06-14T06:34:44;10.47;;;6.33;;
19221;SDS011;9745;50.828;4.378;2023-06-14T06:37:10;12.97;;;6.30;;
19221;SDS011;9745;50.828;4.378;2023-06-14T06:39:36;8.43;;;5.70;;
19221;SDS011;9745;50.828;4.378;2023-06-14T06:42:02;9.02;;;6.07;;
19221;SDS011;9745;50.828;4.378;2023-06-14T06:44:28;7.68;;;5.85;;
19221;SDS011;9745;50.828;4.378;2023-06-14T06:46:54;8.07;;;5.88;;
19221;SDS011;9745;50.828;4.378;2023-06-14T06:49:20;6.28;;;5.60;;
19221;SDS011;9745;50.828;4.378;2023-06-14T06:51:59;10.55;;;5.50;;
19221;SDS011;9745;50.828;4.378;2023-06-14T06:54:27;8.80;;;5.53;;
19221;SDS011;9745;50.828;4.378;2023-06-14T06:56:53;7.57;;;5.57;;
19221;SDS011;9745;50.828;4.378;2023-06-14T06:59:19;10.65;;;5.40;;
19221;SDS011;9745;50.828;4.378;2023-06-14T07:01:45;12.93;;;5.05;;
19221;SDS011;9745;50.828;4.378;2023-06-14T07:04:12;6.75;;;5.20;;
19221;SDS011;9745;50.828;4.378;2023-06-14T07:06:38;6.65;;;5.05;;
19221;SDS011;9745;50.828;4.378;2023-06-14T07:09:04;7.13;;;5.20;;
19221;SDS011;9745;50.828;4.378;2023-06-14T07:11:33;8.43;;;4.80;;
19221;SDS011;9745;50.828;4.378;2023-06-14T07:13:59;8.13;;;4.97;;
19221;SDS011;9745;50.828;4.378;2023-06-14T07:16:25;7.47;;;4.60;;
19221;SDS011;9745;50.828;4.378;2023-06-14T07:18:51;10.88;;;5.13;;
19221;SDS011;9745;50.828;4.378;2023-06-14T07:21:17;5.78;;;4.88;;
19221;SDS011;9745;50.828;4.378;2023-06-14T07:23:43;7.65;;;4.70;;
19221;SDS011;9745;50.828;4.378;2023-06-14T07:26:10;6.35;;;4.70;;
19221;SDS011;9745;50.828;4.378;2023-06-14T07:28:36;8.90;;;5.15;;
19221;SDS011;9745;50.828;4.378;2023-06-14T07:31:02;11.88;;;4.75;;
19221;SDS011;9745;50.828;4.378;2023-06-14T07:33:28;7.57;;;4.40;;
19221;SDS011;9745;50.828;4.378;2023-06-14T07:35:54;9.90;;;5.00;;
19221;SDS011;9745;50.828;4.378;2023-06-14T07:38:20;5.97;;;4.60;;
19221;SDS011;9745;50.828;4.378;2023-06-14T07:40:46;7.90;;;4.53;;
19221;SDS011;9745;50.828;4.378;2023-06-14T07:43:12;5.28;;;4.75;;
19221;SDS011;9745;50.828;4.378;2023-06-14T07:45:38;8.13;;;4.75;;
19221;SDS011;9745;50.828;4.378;2023-06-14T07:48:05;6.70;;;4.72;;
19221;SDS011;9745;50.828;4.378;2023-06-14T07:50:31;8.00;;;4.55;;
19221;SDS011;9745;50.828;4.378;2023-06-14T07:52:57;12.52;;;5.00;;
19221;SDS011;9745;50.828;4.378;2023-06-14T07:55:23;5.57;;;4.60;;
19221;SDS011;9745;50.828;4.378;2023-06-14T07:57:50;5.95;;;4.68;;
19221;SDS011;9745;50.828;4.378;2023-06-14T08:00:16;5.57;;;4.20;;
19221;SDS011;9745;50.828;4.378;2023-06-14T08:02:43;7.95;;;4.80;;
19221;SDS011;9745;50.828;4.378;2023-06-14T08:05:10;5.20;;;4.20;;
19221;SDS011;9745;50.828;4.378;2023-06-14T08:07:36;4.68;;;4.10;;
19221;SDS011;9745;50.828;4.378;2023-06-14T08:10:03;8.40;;;4.88;;
19221;SDS011;9745;50.828;4.378;2023-06-14T08:12:29;9.50;;;4.03;;
19221;SDS011;9745;50.828;4.378;2023-06-14T08:14:55;5.20;;;4.13;;
19221;SDS011;9745;50.828;4.378;2023-06-14T08:17:21;6.85;;;4.38;;
19221;SDS011;9745;50.828;4.378;2023-06-14T08:19:47;6.18;;;4.28;;
19221;SDS011;9745;50.828;4.378;2023-06-14T08:22:13;6.22;;;4.75;;
19221;SDS011;9745;50.828;4.378;2023-06-14T08:24:39;6.43;;;4.57;;
19221;SDS011;9745;50.828;4.378;2023-06-14T08:27:06;11.63;;;4.40;;
19221;SDS011;9745;50.828;4.378;2023-06-14T08:29:32;8.35;;;4.32;;
19221;SDS011;9745;50.828;4.378;2023-06-14T08:31:58;9.32;;;3.97;;
19221;SDS011;9745;50.828;4.378;2023-06-14T08:34:25;10.10;;;4.60;;
19221;SDS011;9745;50.828;4.378;2023-06-14T08:36:51;6.38;;;4.20;;
19221;SDS011;9745;50.828;4.378;2023-06-14T08:39:17;5.85;;;4.60;;
19221;SDS011;9745;50.828;4.378;2023-06-14T08:41:46;10.60;;;4.28;;
19221;SDS011;9745;50.828;4.378;2023-06-14T08:44:13;6.38;;;4.75;;
19221;SDS011;9745;50.828;4.378;2023-06-14T08:46:40;7.68;;;4.50;;
19221;SDS011;9745;50.828;4.378;2023-06-14T08:49:07;8.32;;;4.75;;
19221;SDS011;9745;50.828;4.378;2023-06-14T08:51:34;7.75;;;4.80;;
19221;SDS011;9745;50.828;4.378;2023-06-14T08:54:01;10.88;;;4.35;;
19221;SDS011;9745;50.828;4.378;2023-06-14T08:56:29;6.93;;;4.40;;
19221;SDS011;9745;50.828;4.378;2023-06-14T08:58:56;6.88;;;4.40;;
19221;SDS011;9745;50.828;4.378;2023-06-14T09:01:23;8.18;;;4.60;;
19221;SDS011;9745;50.828;4.378;2023-06-14T09:03:49;10.00;;;4.60;;
19221;SDS011;9745;50.828;4.378;2023-06-14T09:06:16;8.30;;;4.90;;
19221;SDS011;9745;50.828;4.378;2023-06-14T09:08:45;9.10;;;5.10;;
19221;SDS011;9745;50.828;4.378;2023-06-14T09:11:14;6.35;;;4.80;;
19221;SDS011;9745;50.828;4.378;2023-06-14T09:13:41;9.10;;;4.95;;
19221;SDS011;9745;50.828;4.378;2023-06-14T09:16:07;11.15;;;5.13;;
19221;SDS011;9745;50.828;4.378;2023-06-14T09:18:36;6.68;;;4.72;;
19221;SDS011;9745;50.828;4.378;2023-06-14T09:21:03;6.32;;;4.82;;
19221;SDS011;9745;50.828;4.378;2023-06-14T09:23:33;8.77;;;4.75;;
19221;SDS011;9745;50.828;4.378;2023-06-14T09:25:59;6.38;;;4.88;;
19221;SDS011;9745;50.828;4.378;2023-06-14T09:28:28;6.75;;;4.72;;
19221;SDS011;9745;50.828;4.378;2023-06-14T09:30:54;9.00;;;5.15;;
19221;SDS011;9745;50.828;4.378;2023-06-14T09:33:20;9.25;;;4.95;;
19221;SDS011;9745;50.828;4.378;2023-06-14T09:35:50;15.55;;;5.40;;
19221;SDS011;9745;50.828;4.378;2023-06-14T09:38:16;10.88;;;4.80;;
19221;SDS011;9745;50.828;4.378;2023-06-14T09:40:42;8.23;;;4.88;;
19221;SDS011;9745;50.828;4.378;2023-06-14T09:43:08;7.00;;;4.05;;
19221;SDS011;9745;50.828;4.378;2023-06-14T09:45:34;8.35;;;5.05;;
19221;SDS011;9745;50.828;4.378;2023-06-14T09:48:00;5.20;;;4.22;;
19221;SDS011;9745;50.828;4.378;2023-06-14T09:50:26;8.85;;;4.82;;
19221;SDS011;9745;50.828;4.378;2023-06-14T09:52:52;8.60;;;4.53;;
19221;SDS011;9745;50.828;4.378;2023-06-14T09:55:22;10.93;;;4.35;;
19221;SDS011;9745;50.828;4.378;2023-06-14T09:57:49;8.07;;;4.90;;
19221;SDS011;9745;50.828;4.378;2023-06-14T10:00:16;9.88;;;4.50;;
19221;SDS011;9745;50.828;4.378;2023-06-14T10:02:43;8.68;;;5.40;;
19221;SDS011;9745;50.828;4.378;2023-06-14T10:05:14;7.20;;;4.43;;
19221;SDS011;9745;50.828;4.378;2023-06-14T10:07:42;8.18;;;4.28;;
19221;SDS011;9745;50.828;4.378;2023-06-14T10:10:10;8.02;;;4.65;;
19221;SDS011;9745;50.828;4.378;2023-06-14T10:12:36;8.63;;;4.55;;
19221;SDS011;9745;50.828;4.378;2023-06-14T10:15:02;10.38;;;5.20;;
19221;SDS011;9745;50.828;4.378;2023-06-14T10:22:35;9.10;;;4.40;;
19221;SDS011;9745;50.828;4.378;2023-06-14T10:25:06;10.13;;;5.03;;
19221;SDS011;9745;50.828;4.378;2023-06-14T10:27:36;10.45;;;5.32;;
19221;SDS011;9745;50.828;4.378;2023-06-14T10:30:03;9.80;;;5.47;;
19221;SDS011;9745;50.828;4.378;2023-06-14T10:32:29;10.48;;;5.00;;
19221;SDS011;9745;50.828;4.378;2023-06-14T10:34:56;12.65;;;5.15;;
19221;SDS011;9745;50.828;4.378;2023-06-14T10:37:22;13.70;;;6.07;;
19221;SDS011;9745;50.828;4.378;2023-06-14T10:39:49;8.60;;;5.18;;
19221;SDS011;9745;50.828;4.378;2023-06-14T10:42:15;9.05;;;5.10;;
19221;SDS011;9745;50.828;4.378;2023-06-14T10:44:56;11.02;;;5.40;;
19221;SDS011;9745;50.828;4.378;2023-06-14T10:47:25;10.93;;;5.50;;
19221;SDS011;9745;50.828;4.378;2023-06-14T10:49:52;9.20;;;4.83;;
19221;SDS011;9745;50.828;4.378;2023-06-14T10:52:21;6.57;;;4.53;;
19221;SDS011;9745;50.828;4.378;2023-06-14T10:57:31;13.03;;;5.13;;
19221;SDS011;9745;50.828;4.378;2023-06-14T10:59:58;9.20;;;4.97;;
19221;SDS011;9745;50.828;4.378;2023-06-14T11:05:14;9.67;;;4.00;;
19221;SDS011;9745;50.828;4.378;2023-06-14T11:07:48;6.87;;;4.60;;
19221;SDS011;9745;50.828;4.378;2023-06-14T11:12:48;12.37;;;5.20;;
19221;SDS011;9745;50.828;4.378;2023-06-14T11:15:14;10.50;;;4.30;;
19221;SDS011;9745;50.828;4.378;2023-06-14T11:17:49;9.67;;;4.80;;
19221;SDS011;9745;50.828;4.378;2023-06-14T11:20:16;9.13;;;4.70;;
19221;SDS011;9745;50.828;4.378;2023-06-14T11:22:42;9.47;;;4.57;;
19221;SDS011;9745;50.828;4.378;2023-06-14T11:25:09;5.73;;;4.00;;
19221;SDS011;9745;50.828;4.378;2023-06-14T11:27:35;8.07;;;4.33;;
19221;SDS011;9745;50.828;4.378;2023-06-14T11:30:01;13.77;;;4.90;;
19221;SDS011;9745;50.828;4.378;2023-06-14T11:32:27;5.00;;;4.13;;
19221;SDS011;9745;50.828;4.378;2023-06-14T11:34:53;8.93;;;4.30;;
19221;SDS011;9745;50.828;4.378;2023-06-14T11:37:19;10.47;;;4.03;;
19221;SDS011;9745;50.828;4.378;2023-06-14T11:39:46;7.63;;;4.07;;
19221;SDS011;9745;50.828;4.378;2023-06-14T11:42:15;8.20;;;4.33;;
19221;SDS011;9745;50.828;4.378;2023-06-14T11:44:41;9.47;;;4.27;;
19221;SDS011;9745;50.828;4.378;2023-06-14T11:47:07;9.63;;;3.87;;
19221;SDS011;9745;50.828;4.378;2023-06-14T11:49:36;13.37;;;4.50;;
19221;SDS011;9745;50.828;4.378;2023-06-14T11:52:02;8.23;;;4.47;;
19221;SDS011;9745;50.828;4.378;2023-06-14T11:54:28;7.30;;;4.20;;
19221;SDS011;9745;50.828;4.378;2023-06-14T11:56:54;9.33;;;4.13;;
19221;SDS011;9745;50.828;4.378;2023-06-14T11:59:20;8.37;;;4.20;;
19221;SDS011;9745;50.828;4.378;2023-06-14T12:01:47;8.23;;;3.90;;
19221;SDS011;9745;50.828;4.378;2023-06-14T12:04:13;8.53;;;4.17;;
19221;SDS011;9745;50.828;4.378;2023-06-14T12:06:39;8.40;;;4.30;;
19221;SDS011;9745;50.828;4.378;2023-06-14T12:09:06;7.70;;;4.97;;
19221;SDS011;9745;50.828;4.378;2023-06-14T12:11:37;9.77;;;4.30;;
19221;SDS011;9745;50.828;4.378;2023-06-14T12:14:07;10.60;;;5.43;;
19221;SDS011;9745;50.828;4.378;2023-06-14T12:16:34;8.10;;;4.50;;
19221;SDS011;9745;50.828;4.378;2023-06-14T12:19:07;7.80;;;3.87;;
19221;SDS011;9745;50.828;4.378;2023-06-14T12:21:35;6.90;;;3.83;;
19221;SDS011;9745;50.828;4.378;2023-06-14T12:24:03;7.83;;;4.20;;
19221;SDS011;9745;50.828;4.378;2023-06-14T12:26:31;8.53;;;4.33;;
19221;SDS011;9745;50.828;4.378;2023-06-14T12:28:57;9.33;;;3.73;;
19221;SDS011;9745;50.828;4.378;2023-06-14T12:31:24;11.13;;;3.90;;
19221;SDS011;9745;50.828;4.378;2023-06-14T12:33:51;13.83;;;3.90;;
19221;SDS011;9745;50.828;4.378;2023-06-14T12:36:17;7.13;;;3.63;;
19221;SDS011;9745;50.828;4.378;2023-06-14T12:38:43;7.43;;;3.80;;
19221;SDS011;9745;50.828;4.378;2023-06-14T12:41:11;5.53;;;3.30;;
19221;SDS011;9745;50.828;4.378;2023-06-14T12:43:39;6.13;;;3.60;;
19221;SDS011;9745;50.828;4.378;2023-06-14T12:46:05;7.23;;;4.07;;
19221;SDS011;9745;50.828;4.378;2023-06-14T12:48:31;7.20;;;4.50;;
19221;SDS011;9745;50.828;4.378;2023-06-14T12:50:57;7.20;;;4.53;;
19221;SDS011;9745;50.828;4.378;2023-06-14T12:53:23;9.37;;;4.00;;
19221;SDS011;9745;50.828;4.378;2023-06-14T12:55:49;10.33;;;3.70;;
19221;SDS011;9745;50.828;4.378;2023-06-14T12:58:16;5.23;;;3.90;;
19221;SDS011;9745;50.828;4.378;2023-06-14T13:00:44;7.03;;;3.63;;
19221;SDS011;9745;50.828;4.378;2023-06-14T13:03:10;6.37;;;3.53;;
19221;SDS011;9745;50.828;4.378;2023-06-14T13:05:36;5.77;;;3.83;;
19221;SDS011;9745;50.828;4.378;2023-06-14T13:08:05;6.53;;;3.40;;
19221;SDS011;9745;50.828;4.378;2023-06-14T13:10:33;11.67;;;4.17;;
19221;SDS011;9745;50.828;4.378;2023-06-14T13:12:59;7.83;;;3.83;;
19221;SDS011;9745;50.828;4.378;2023-06-14T13:15:25;10.60;;;4.00;;
19221;SDS011;9745;50.828;4.378;2023-06-14T13:17:52;5.83;;;3.40;;
19221;SDS011;9745;50.828;4.378;2023-06-14T13:20:18;6.57;;;3.20;;
19221;SDS011;9745;50.828;4.378;2023-06-14T13:22:43;6.40;;;3.43;;
19221;SDS011;9745;50.828;4.378;2023-06-14T13:25:09;4.77;;;3.57;;
19221;SDS011;9745;50.828;4.378;2023-06-14T13:27:35;9.23;;;3.57;;
19221;SDS011;9745;50.828;4.378;2023-06-14T13:30:02;6.07;;;3.00;;
19221;SDS011;9745;50.828;4.378;2023-06-14T13:32:30;8.90;;;3.40;;
19221;SDS011;9745;50.828;4.378;2023-06-14T13:34:56;7.43;;;3.13;;
19221;SDS011;9745;50.828;4.378;2023-06-14T13:37:22;12.77;;;3.00;;
19221;SDS011;9745;50.828;4.378;2023-06-14T13:39:48;6.67;;;2.90;;
19221;SDS011;9745;50.828;4.378;2023-06-14T13:42:15;7.53;;;2.93;;
19221;SDS011;9745;50.828;4.378;2023-06-14T13:44:41;7.33;;;3.30;;
19221;SDS011;9745;50.828;4.378;2023-06-14T13:47:07;4.93;;;3.77;;
19221;SDS011;9745;50.828;4.378;2023-06-14T13:49:33;6.77;;;3.30;;
19221;SDS011;9745;50.828;4.378;2023-06-14T13:52:00;7.50;;;2.97;;
19221;SDS011;9745;50.828;4.378;2023-06-14T13:54:26;6.10;;;3.17;;
19221;SDS011;9745;50.828;4.378;2023-06-14T13:56:52;9.03;;;3.03;;
19221;SDS011;9745;50.828;4.378;2023-06-14T13:59:19;4.27;;;2.60;;
19221;SDS011;9745;50.828;4.378;2023-06-14T14:01:45;6.67;;;3.13;;
19221;SDS011;9745;50.828;4.378;2023-06-14T14:04:11;6.97;;;3.00;;
19221;SDS011;9745;50.828;4.378;2023-06-14T14:06:37;6.93;;;3.13;;
19221;SDS011;9745;50.828;4.378;2023-06-14T14:09:03;6.33;;;2.57;;
19221;SDS011;9745;50.828;4.378;2023-06-14T14:11:29;5.30;;;2.53;;
19221;SDS011;9745;50.828;4.378;2023-06-14T14:13:57;5.87;;;2.53;;
19221;SDS011;9745;50.828;4.378;2023-06-14T14:16:23;5.63;;;2.40;;
19221;SDS011;9745;50.828;4.378;2023-06-14T14:18:49;6.17;;;2.07;;
19221;SDS011;9745;50.828;4.378;2023-06-14T14:21:15;5.67;;;2.23;;
19221;SDS011;9745;50.828;4.378;2023-06-14T14:23:41;4.00;;;2.10;;
19221;SDS011;9745;50.828;4.378;2023-06-14T14:26:07;5.43;;;2.37;;
19221;SDS011;9745;50.828;4.378;2023-06-14T14:28:33;2.90;;;1.97;;
19221;SDS011;9745;50.828;4.378;2023-06-14T14:30:59;3.87;;;1.93;;
19221;SDS011;9745;50.828;4.378;2023-06-14T14:33:25;2.53;;;1.90;;
19221;SDS011;9745;50.828;4.378;2023-06-14T14:35:51;4.83;;;2.30;;
19221;SDS011;9745;50.828;4.378;2023-06-14T14:38:17;3.27;;;1.80;;
19221;SDS011;9745;50.828;4.378;2023-06-14T14:40:43;2.10;;;1.60;;
19221;SDS011;9745;50.828;4.378;2023-06-14T14:43:10;5.40;;;2.30;;
19221;SDS011;9745;50.828;4.378;2023-06-14T14:45:36;5.17;;;2.47;;
19221;SDS011;9745;50.828;4.378;2023-06-14T14:48:02;6.87;;;2.20;;
19221;SDS011;9745;50.828;4.378;2023-06-14T14:50:28;5.00;;;2.07;;
19221;SDS011;9745;50.828;4.378;2023-06-14T14:52:55;4.00;;;1.50;;
19221;SDS011;9745;50.828;4.378;2023-06-14T14:55:21;2.70;;;1.70;;
19221;SDS011;9745;50.828;4.378;2023-06-14T14:57:47;3.70;;;1.50;;
19221;SDS011;9745;50.828;4.378;2023-06-14T15:00:13;3.87;;;2.13;;
19221;SDS011;9745;50.828;4.378;2023-06-14T15:02:40;5.23;;;2.67;;
19221;SDS011;9745;50.828;4.378;2023-06-14T15:05:06;4.30;;;2.00;;
19221;SDS011;9745;50.828;4.378;2023-06-14T15:07:32;3.77;;;1.67;;